sensor_id;sensor_type;location;lat;lon;timestamp;pressure;altitude;pressure_sealevel;temperature;humidity
59608;BME280;45426;44.726;10.390;2023-03-15T00:01:25;99433.38;;;9.49;100.00
59608;BME280;45426;44.726;10.390;2023-03-15T00:03:51;99421.31;;;9.78;100.00
59608;BME280;45426;44.726;10.390;2023-03-15T00:06:19;99427.00;;;10.24;100.00
59608;BME280;45426;44.726;10.390;2023-03-15T00:08:45;99427.63;;;10.18;100.00
59608;BME280;45426;44.726;10.390;2023-03-15T00:11:13;99423.47;;;10.40;100.00
59608;BME280;45426;44.726;10.390;2023-03-15T00:13:39;99422.66;;;10.55;100.00
59608;BME280;45426;44.726;10.390;2023-03-15T00:16:04;99424.63;;;10.39;100.00
59608;BME280;45426;44.726;10.390;2023-03-15T00:18:30;99420.44;;;10.25;100.00
59608;BME280;45426;44.726;10.390;2023-03-15T00:20:56;99423.84;;;10.22;100.00
59608;BME280;45426;44.726;10.390;2023-03-15T00:23:21;99429.69;;;9.89;100.00
59608;BME280;45426;44.726;10.390;2023-03-15T00:25:48;99431.72;;;10.27;100.00
59608;BME280;45426;44.726;10.390;2023-03-15T00:28:14;99429.22;;;10.35;100.00
59608;BME280;45426;44.726;10.390;2023-03-15T00:30:40;99435.84;;;10.37;100.00
59608;BME280;45426;44.726;10.390;2023-03-15T00:33:05;99452.56;;;10.39;100.00
59608;BME280;45426;44.726;10.390;2023-03-15T00:35:32;99453.50;;;10.47;100.00
59608;BME280;45426;44.726;10.390;2023-03-15T00:38:02;99452.41;;;10.32;100.00
59608;BME280;45426;44.726;10.390;2023-03-15T00:40:29;99447.72;;;10.48;100.00
59608;BME280;45426;44.726;10.390;2023-03-15T00:42:54;99452.38;;;10.67;100.00
59608;BME280;45426;44.726;10.390;2023-03-15T00:45:21;99450.31;;;10.80;100.00
59608;BME280;45426;44.726;10.390;2023-03-15T00:47:51;99452.63;;;10.43;100.00
59608;BME280;45426;44.726;10.390;2023-03-15T00:50:18;99460.91;;;10.31;100.00
59608;BME280;45426;44.726;10.390;2023-03-15T00:52:43;99469.63;;;10.75;100.00
59608;BME280;45426;44.726;10.390;2023-03-15T00:55:12;99469.06;;;10.85;100.00
59608;BME280;45426;44.726;10.390;2023-03-15T00:57:39;99467.41;;;10.61;100.00
59608;BME280;45426;44.726;10.390;2023-03-15T01:00:19;99469.53;;;10.72;100.00
59608;BME280;45426;44.726;10.390;2023-03-15T01:02:48;99461.25;;;10.84;100.00
59608;BME280;45426;44.726;10.390;2023-03-15T01:05:14;99460.09;;;10.65;100.00
59608;BME280;45426;44.726;10.390;2023-03-15T01:07:39;99463.66;;;10.50;100.00
59608;BME280;45426;44.726;10.390;2023-03-15T01:10:05;99468.91;;;10.78;100.00
59608;BME280;45426;44.726;10.390;2023-03-15T01:12:32;99465.72;;;10.37;100.00
59608;BME280;45426;44.726;10.390;2023-03-15T01:14:58;99473.31;;;10.47;100.00
59608;BME280;45426;44.726;10.390;2023-03-15T01:17:24;99474.25;;;10.55;100.00
59608;BME280;45426;44.726;10.390;2023-03-15T01:19:50;99485.41;;;10.69;100.00
59608;BME280;45426;44.726;10.390;2023-03-15T01:22:16;99490.34;;;10.64;100.00
59608;BME280;45426;44.726;10.390;2023-03-15T01:24:42;99493.88;;;10.84;100.00
59608;BME280;45426;44.726;10.390;2023-03-15T01:27:07;99481.94;;;10.88;100.00
59608;BME280;45426;44.726;10.390;2023-03-15T01:29:33;99485.91;;;10.75;100.00
59608;BME280;45426;44.726;10.390;2023-03-15T01:31:58;99489.94;;;10.81;100.00
59608;BME280;45426;44.726;10.390;2023-03-15T01:34:24;99483.63;;;10.77;100.00
59608;BME280;45426;44.726;10.390;2023-03-15T01:36:49;99489.38;;;10.72;100.00
59608;BME280;45426;44.726;10.390;2023-03-15T01:39:16;99488.28;;;10.77;100.00
59608;BME280;45426;44.726;10.390;2023-03-15T01:41:42;99488.00;;;10.82;100.00
59608;BME280;45426;44.726;10.390;2023-03-15T01:44:14;99491.06;;;10.61;100.00
59608;BME280;45426;44.726;10.390;2023-03-15T01:46:40;99497.13;;;10.54;100.00
59608;BME280;45426;44.726;10.390;2023-03-15T01:49:13;99500.09;;;10.49;100.00
59608;BME280;45426;44.726;10.390;2023-03-15T01:54:39;99495.56;;;10.53;100.00
59608;BME280;45426;44.726;10.390;2023-03-15T01:59:37;99498.22;;;10.69;100.00
59608;BME280;45426;44.726;10.390;2023-03-15T02:02:05;99505.53;;;10.17;100.00
59608;BME280;45426;44.726;10.390;2023-03-15T02:04:35;99503.63;;;10.34;100.00
59608;BME280;45426;44.726;10.390;2023-03-15T02:07:03;99508.09;;;9.94;100.00
59608;BME280;45426;44.726;10.390;2023-03-15T02:10:03;99515.19;;;9.39;100.00
59608;BME280;45426;44.726;10.390;2023-03-15T02:12:31;99513.00;;;9.28;100.00
59608;BME280;45426;44.726;10.390;2023-03-15T02:14:59;99523.03;;;9.72;100.00
59608;BME280;45426;44.726;10.390;2023-03-15T02:17:46;99517.22;;;9.42;100.00
59608;BME280;45426;44.726;10.390;2023-03-15T02:20:32;99517.13;;;9.82;100.00
59608;BME280;45426;44.726;10.390;2023-03-15T02:23:07;99508.59;;;9.24;100.00
59608;BME280;45426;44.726;10.390;2023-03-15T02:28:00;99507.06;;;9.10;100.00
59608;BME280;45426;44.726;10.390;2023-03-15T02:30:26;99501.69;;;8.98;100.00
59608;BME280;45426;44.726;10.390;2023-03-15T02:32:51;99507.97;;;8.62;100.00
59608;BME280;45426;44.726;10.390;2023-03-15T02:35:26;99515.31;;;8.61;100.00
59608;BME280;45426;44.726;10.390;2023-03-15T02:37:52;99512.59;;;8.73;100.00
59608;BME280;45426;44.726;10.390;2023-03-15T02:40:21;99513.38;;;8.74;100.00
59608;BME280;45426;44.726;10.390;2023-03-15T02:42:50;99510.47;;;9.07;100.00
59608;BME280;45426;44.726;10.390;2023-03-15T02:45:16;99512.09;;;9.24;100.00
59608;BME280;45426;44.726;10.390;2023-03-15T02:47:43;99510.94;;;8.97;100.00
59608;BME280;45426;44.726;10.390;2023-03-15T02:50:10;99509.53;;;8.75;100.00
59608;BME280;45426;44.726;10.390;2023-03-15T02:52:35;99513.88;;;9.04;100.00
59608;BME280;45426;44.726;10.390;2023-03-15T02:55:01;99511.56;;;8.90;100.00
59608;BME280;45426;44.726;10.390;2023-03-15T02:57:26;99517.44;;;9.21;100.00
59608;BME280;45426;44.726;10.390;2023-03-15T02:59:52;99519.28;;;9.04;100.00
59608;BME280;45426;44.726;10.390;2023-03-15T03:02:20;99528.28;;;9.08;100.00
59608;BME280;45426;44.726;10.390;2023-03-15T03:04:46;99523.88;;;9.16;100.00
59608;BME280;45426;44.726;10.390;2023-03-15T03:07:11;99523.97;;;9.48;100.00
59608;BME280;45426;44.726;10.390;2023-03-15T03:09:37;99534.06;;;9.63;100.00
59608;BME280;45426;44.726;10.390;2023-03-15T03:12:03;99526.50;;;9.41;100.00
59608;BME280;45426;44.726;10.390;2023-03-15T03:14:28;99518.25;;;9.09;100.00
59608;BME280;45426;44.726;10.390;2023-03-15T03:16:55;99524.84;;;9.24;100.00
59608;BME280;45426;44.726;10.390;2023-03-15T03:19:21;99514.38;;;8.82;100.00
59608;BME280;45426;44.726;10.390;2023-03-15T03:21:51;99521.88;;;9.01;100.00
59608;BME280;45426;44.726;10.390;2023-03-15T03:24:17;99522.19;;;9.40;100.00
59608;BME280;45426;44.726;10.390;2023-03-15T03:26:43;99523.28;;;9.51;100.00
59608;BME280;45426;44.726;10.390;2023-03-15T03:29:10;99530.19;;;9.48;100.00
59608;BME280;45426;44.726;10.390;2023-03-15T03:31:35;99514.56;;;9.74;100.00
59608;BME280;45426;44.726;10.390;2023-03-15T03:34:01;99532.53;;;9.78;100.00
59608;BME280;45426;44.726;10.390;2023-03-15T03:36:26;99534.38;;;9.90;100.00
59608;BME280;45426;44.726;10.390;2023-03-15T03:38:52;99533.41;;;9.82;100.00
59608;BME280;45426;44.726;10.390;2023-03-15T03:41:19;99522.69;;;9.74;100.00
59608;BME280;45426;44.726;10.390;2023-03-15T03:43:45;99550.94;;;9.57;100.00
59608;BME280;45426;44.726;10.390;2023-03-15T03:46:11;99550.38;;;9.95;100.00
59608;BME280;45426;44.726;10.390;2023-03-15T03:48:36;99553.25;;;9.86;100.00
59608;BME280;45426;44.726;10.390;2023-03-15T03:51:02;99536.59;;;9.72;100.00
59608;BME280;45426;44.726;10.390;2023-03-15T03:53:27;99554.03;;;9.71;100.00
59608;BME280;45426;44.726;10.390;2023-03-15T03:55:53;99559.13;;;9.88;100.00
59608;BME280;45426;44.726;10.390;2023-03-15T03:58:19;99555.78;;;9.79;100.00
59608;BME280;45426;44.726;10.390;2023-03-15T04:00:45;99549.13;;;9.93;100.00
59608;BME280;45426;44.726;10.390;2023-03-15T04:03:10;99549.56;;;9.79;100.00
59608;BME280;45426;44.726;10.390;2023-03-15T04:05:36;99550.00;;;9.97;100.00
59608;BME280;45426;44.726;10.390;2023-03-15T04:08:03;99554.31;;;9.98;100.00
59608;BME280;45426;44.726;10.390;2023-03-15T04:10:28;99551.34;;;9.15;100.00
59608;BME280;45426;44.726;10.390;2023-03-15T04:12:59;99567.41;;;8.33;100.00
59608;BME280;45426;44.726;10.390;2023-03-15T04:15:25;99564.03;;;8.36;100.00
59608;BME280;45426;44.726;10.390;2023-03-15T04:17:50;99562.63;;;7.93;100.00
59608;BME280;45426;44.726;10.390;2023-03-15T04:20:24;99564.69;;;8.33;100.00
59608;BME280;45426;44.726;10.390;2023-03-15T04:22:50;99565.41;;;8.67;100.00
59608;BME280;45426;44.726;10.390;2023-03-15T04:25:17;99563.47;;;8.92;100.00
59608;BME280;45426;44.726;10.390;2023-03-15T04:27:43;99563.69;;;9.00;100.00
59608;BME280;45426;44.726;10.390;2023-03-15T04:30:10;99571.28;;;9.22;100.00
59608;BME280;45426;44.726;10.390;2023-03-15T04:32:35;99557.88;;;9.13;100.00
59608;BME280;45426;44.726;10.390;2023-03-15T04:35:01;99569.03;;;9.12;100.00
59608;BME280;45426;44.726;10.390;2023-03-15T04:37:27;99584.47;;;9.24;100.00
59608;BME280;45426;44.726;10.390;2023-03-15T04:39:53;99582.16;;;9.50;100.00
59608;BME280;45426;44.726;10.390;2023-03-15T04:42:19;99581.72;;;9.64;100.00
59608;BME280;45426;44.726;10.390;2023-03-15T04:44:45;99585.06;;;9.58;100.00
59608;BME280;45426;44.726;10.390;2023-03-15T04:47:11;99583.13;;;9.58;100.00
59608;BME280;45426;44.726;10.390;2023-03-15T04:49:36;99589.53;;;9.66;100.00
59608;BME280;45426;44.726;10.390;2023-03-15T04:52:02;99595.53;;;9.59;100.00
59608;BME280;45426;44.726;10.390;2023-03-15T04:54:27;99590.38;;;9.54;100.00
59608;BME280;45426;44.726;10.390;2023-03-15T04:56:53;99593.72;;;9.63;100.00
59608;BME280;45426;44.726;10.390;2023-03-15T04:59:18;99593.06;;;9.82;100.00
59608;BME280;45426;44.726;10.390;2023-03-15T05:01:44;99592.94;;;9.63;100.00
59608;BME280;45426;44.726;10.390;2023-03-15T05:04:09;99602.75;;;9.39;100.00
59608;BME280;45426;44.726;10.390;2023-03-15T05:06:35;99603.97;;;9.42;100.00
59608;BME280;45426;44.726;10.390;2023-03-15T05:09:00;99603.44;;;9.24;100.00
59608;BME280;45426;44.726;10.390;2023-03-15T05:11:25;99606.81;;;9.33;100.00
59608;BME280;45426;44.726;10.390;2023-03-15T05:13:51;99616.31;;;9.27;100.00
59608;BME280;45426;44.726;10.390;2023-03-15T05:16:16;99609.59;;;9.08;100.00
59608;BME280;45426;44.726;10.390;2023-03-15T05:18:42;99612.63;;;9.19;100.00
59608;BME280;45426;44.726;10.390;2023-03-15T05:21:09;99614.00;;;9.01;100.00
59608;BME280;45426;44.726;10.390;2023-03-15T05:23:37;99616.59;;;9.09;100.00
59608;BME280;45426;44.726;10.390;2023-03-15T05:26:02;99615.91;;;9.12;100.00
59608;BME280;45426;44.726;10.390;2023-03-15T05:28:28;99618.88;;;8.95;100.00
59608;BME280;45426;44.726;10.390;2023-03-15T05:30:53;99628.09;;;9.06;100.00
59608;BME280;45426;44.726;10.390;2023-03-15T05:33:19;99631.03;;;9.26;100.00
59608;BME280;45426;44.726;10.390;2023-03-15T05:35:47;99632.38;;;9.20;100.00
59608;BME280;45426;44.726;10.390;2023-03-15T05:38:13;99633.06;;;9.17;100.00
59608;BME280;45426;44.726;10.390;2023-03-15T05:40:43;99645.88;;;8.79;100.00
59608;BME280;45426;44.726;10.390;2023-03-15T05:43:09;99640.19;;;8.97;100.00
59608;BME280;45426;44.726;10.390;2023-03-15T05:45:35;99650.00;;;9.13;100.00
59608;BME280;45426;44.726;10.390;2023-03-15T05:48:01;99655.66;;;8.84;100.00
59608;BME280;45426;44.726;10.390;2023-03-15T05:50:27;99651.38;;;8.95;100.00
59608;BME280;45426;44.726;10.390;2023-03-15T05:52:53;99658.56;;;9.16;100.00
59608;BME280;45426;44.726;10.390;2023-03-15T05:55:18;99671.69;;;9.13;100.00
59608;BME280;45426;44.726;10.390;2023-03-15T05:57:44;99670.91;;;9.13;100.00
59608;BME280;45426;44.726;10.390;2023-03-15T06:00:10;99678.00;;;9.18;100.00
59608;BME280;45426;44.726;10.390;2023-03-15T06:02:38;99686.47;;;9.28;100.00
59608;BME280;45426;44.726;10.390;2023-03-15T06:05:04;99686.16;;;8.93;100.00
59608;BME280;45426;44.726;10.390;2023-03-15T06:07:30;99685.34;;;8.80;100.00
59608;BME280;45426;44.726;10.390;2023-03-15T06:09:55;99700.81;;;9.04;100.00
59608;BME280;45426;44.726;10.390;2023-03-15T06:12:21;99715.03;;;9.26;100.00
59608;BME280;45426;44.726;10.390;2023-03-15T06:14:46;99719.44;;;9.30;100.00
59608;BME280;45426;44.726;10.390;2023-03-15T06:17:12;99719.31;;;9.27;100.00
59608;BME280;45426;44.726;10.390;2023-03-15T06:19:37;99720.84;;;9.65;100.00
59608;BME280;45426;44.726;10.390;2023-03-15T06:22:03;99717.59;;;9.87;100.00
59608;BME280;45426;44.726;10.390;2023-03-15T06:24:28;99722.44;;;10.35;100.00
59608;BME280;45426;44.726;10.390;2023-03-15T06:26:54;99722.59;;;11.73;100.00
59608;BME280;45426;44.726;10.390;2023-03-15T06:29:21;99721.88;;;16.97;100.00
59608;BME280;45426;44.726;10.390;2023-03-15T06:31:47;99707.34;;;22.96;75.27
59608;BME280;45426;44.726;10.390;2023-03-15T06:34:14;99731.16;;;24.65;62.86
59608;BME280;45426;44.726;10.390;2023-03-15T06:36:39;99735.91;;;25.60;57.92
59608;BME280;45426;44.726;10.390;2023-03-15T06:39:07;99746.91;;;23.58;52.40
59608;BME280;45426;44.726;10.390;2023-03-15T06:41:32;99752.47;;;25.64;53.46
59608;BME280;45426;44.726;10.390;2023-03-15T06:43:58;99754.31;;;26.02;51.88
59608;BME280;45426;44.726;10.390;2023-03-15T06:46:23;99758.56;;;26.97;51.52
59608;BME280;45426;44.726;10.390;2023-03-15T06:48:49;99761.16;;;26.41;50.74
59608;BME280;45426;44.726;10.390;2023-03-15T06:51:14;99757.53;;;28.48;51.10
59608;BME280;45426;44.726;10.390;2023-03-15T06:53:40;99771.66;;;27.64;48.35
59608;BME280;45426;44.726;10.390;2023-03-15T06:56:05;99766.22;;;27.24;45.94
59608;BME280;45426;44.726;10.390;2023-03-15T06:58:31;99768.53;;;28.94;46.64
59608;BME280;45426;44.726;10.390;2023-03-15T07:00:56;99779.19;;;29.29;45.83
59608;BME280;45426;44.726;10.390;2023-03-15T07:03:22;99788.25;;;27.68;45.05
59608;BME280;45426;44.726;10.390;2023-03-15T07:05:48;99781.59;;;28.88;45.38
59608;BME280;45426;44.726;10.390;2023-03-15T07:08:17;99789.59;;;29.28;44.15
59608;BME280;45426;44.726;10.390;2023-03-15T07:10:43;99795.25;;;29.43;43.05
59608;BME280;45426;44.726;10.390;2023-03-15T07:13:09;99799.69;;;27.88;41.46
59608;BME280;45426;44.726;10.390;2023-03-15T07:15:37;99795.69;;;29.66;42.85
59608;BME280;45426;44.726;10.390;2023-03-15T07:18:02;99794.50;;;30.91;42.58
59608;BME280;45426;44.726;10.390;2023-03-15T07:20:28;99815.81;;;29.55;41.27
59608;BME280;45426;44.726;10.390;2023-03-15T07:22:53;99810.13;;;32.27;41.54
59608;BME280;45426;44.726;10.390;2023-03-15T07:25:18;99820.16;;;29.56;39.60
59608;BME280;45426;44.726;10.390;2023-03-15T07:27:49;99830.72;;;29.37;40.45
59608;BME280;45426;44.726;10.390;2023-03-15T07:30:16;99814.47;;;32.60;42.58
59608;BME280;45426;44.726;10.390;2023-03-15T07:32:41;99823.22;;;32.67;40.95
59608;BME280;45426;44.726;10.390;2023-03-15T07:35:07;99817.59;;;32.36;40.29
59608;BME280;45426;44.726;10.390;2023-03-15T07:37:33;99821.13;;;31.78;40.41
59608;BME280;45426;44.726;10.390;2023-03-15T07:39:58;99832.34;;;29.68;39.78
59608;BME280;45426;44.726;10.390;2023-03-15T07:42:25;99842.53;;;30.49;40.29
59608;BME280;45426;44.726;10.390;2023-03-15T07:44:50;99837.63;;;29.75;40.70
59608;BME280;45426;44.726;10.390;2023-03-15T07:47:16;99829.19;;;29.02;39.87
59608;BME280;45426;44.726;10.390;2023-03-15T07:49:41;99838.16;;;28.82;41.25
59608;BME280;45426;44.726;10.390;2023-03-15T07:52:07;99847.72;;;29.96;41.67
59608;BME280;45426;44.726;10.390;2023-03-15T07:54:33;99845.41;;;27.36;40.75
59608;BME280;45426;44.726;10.390;2023-03-15T07:56:58;99847.09;;;28.44;41.07
59608;BME280;45426;44.726;10.390;2023-03-15T07:59:24;99846.97;;;30.41;41.20
59608;BME280;45426;44.726;10.390;2023-03-15T08:01:50;99853.41;;;28.72;40.43
59608;BME280;45426;44.726;10.390;2023-03-15T08:04:15;99856.81;;;31.37;41.86
59608;BME280;45426;44.726;10.390;2023-03-15T08:06:41;99866.63;;;30.02;41.37
59608;BME280;45426;44.726;10.390;2023-03-15T08:09:06;99864.34;;;25.46;39.38
59608;BME280;45426;44.726;10.390;2023-03-15T08:11:32;99861.88;;;27.52;40.70
59608;BME280;45426;44.726;10.390;2023-03-15T08:13:58;99873.03;;;30.17;41.82
59608;BME280;45426;44.726;10.390;2023-03-15T08:16:23;99875.56;;;24.91;41.14
59608;BME280;45426;44.726;10.390;2023-03-15T08:18:49;99881.25;;;22.32;50.29
59608;BME280;45426;44.726;10.390;2023-03-15T08:21:14;99881.97;;;20.90;61.48
59608;BME280;45426;44.726;10.390;2023-03-15T08:23:40;99894.50;;;20.33;64.55
59608;BME280;45426;44.726;10.390;2023-03-15T08:26:05;99879.63;;;21.90;67.04
59608;BME280;45426;44.726;10.390;2023-03-15T08:28:31;99892.63;;;20.23;62.74
59608;BME280;45426;44.726;10.390;2023-03-15T08:30:56;99892.66;;;20.54;69.52
59608;BME280;45426;44.726;10.390;2023-03-15T08:33:21;99897.94;;;21.30;57.48
59608;BME280;45426;44.726;10.390;2023-03-15T08:35:56;99893.00;;;20.90;60.75
59608;BME280;45426;44.726;10.390;2023-03-15T08:38:21;99901.91;;;21.02;59.80
59608;BME280;45426;44.726;10.390;2023-03-15T08:40:47;99895.25;;;20.00;74.82
59608;BME280;45426;44.726;10.390;2023-03-15T08:43:12;99901.19;;;19.94;62.38
59608;BME280;45426;44.726;10.390;2023-03-15T08:45:37;99901.13;;;21.79;61.17
59608;BME280;45426;44.726;10.390;2023-03-15T08:48:03;99912.25;;;21.25;62.05
59608;BME280;45426;44.726;10.390;2023-03-15T08:50:28;99918.91;;;19.45;68.29
59608;BME280;45426;44.726;10.390;2023-03-15T08:52:56;99914.41;;;20.48;64.92
59608;BME280;45426;44.726;10.390;2023-03-15T08:55:21;99923.31;;;22.43;68.81
59608;BME280;45426;44.726;10.390;2023-03-15T08:57:47;99915.59;;;23.76;54.07
59608;BME280;45426;44.726;10.390;2023-03-15T09:00:14;99927.53;;;23.73;55.84
59608;BME280;45426;44.726;10.390;2023-03-15T09:02:45;99931.50;;;24.05;52.08
59608;BME280;45426;44.726;10.390;2023-03-15T09:05:13;99930.47;;;28.18;50.27
59608;BME280;45426;44.726;10.390;2023-03-15T09:07:40;99943.31;;;25.96;46.62
59608;BME280;45426;44.726;10.390;2023-03-15T09:10:08;99946.66;;;24.46;52.58
59608;BME280;45426;44.726;10.390;2023-03-15T09:12:34;99949.34;;;26.51;49.90
59608;BME280;45426;44.726;10.390;2023-03-15T09:15:00;99948.97;;;26.05;48.57
59608;BME280;45426;44.726;10.390;2023-03-15T09:17:25;99948.81;;;25.87;49.67
59608;BME280;45426;44.726;10.390;2023-03-15T09:19:51;99952.63;;;28.49;49.08
59608;BME280;45426;44.726;10.390;2023-03-15T09:22:16;99949.75;;;24.35;49.70
59608;BME280;45426;44.726;10.390;2023-03-15T09:24:42;99946.59;;;23.22;61.39
59608;BME280;45426;44.726;10.390;2023-03-15T09:27:07;99953.63;;;24.54;56.30
59608;BME280;45426;44.726;10.390;2023-03-15T09:29:35;99960.25;;;22.93;57.48
59608;BME280;45426;44.726;10.390;2023-03-15T09:32:01;99960.91;;;26.06;55.38
59608;BME280;45426;44.726;10.390;2023-03-15T09:34:26;99972.47;;;22.12;60.13
59608;BME280;45426;44.726;10.390;2023-03-15T09:36:52;99971.19;;;20.08;74.19
59608;BME280;45426;44.726;10.390;2023-03-15T09:39:21;99973.34;;;20.27;85.52
59608;BME280;45426;44.726;10.390;2023-03-15T09:41:52;99982.13;;;20.91;88.65
59608;BME280;45426;44.726;10.390;2023-03-15T09:47:20;99991.28;;;20.05;93.68
59608;BME280;45426;44.726;10.390;2023-03-15T09:53:15;99993.94;;;21.80;85.04
59608;BME280;45426;44.726;10.390;2023-03-15T09:55:43;99991.13;;;20.99;89.92
59608;BME280;45426;44.726;10.390;2023-03-15T09:58:18;99991.00;;;21.91;71.91
59608;BME280;45426;44.726;10.390;2023-03-15T10:00:48;99989.78;;;20.38;69.58
59608;BME280;45426;44.726;10.390;2023-03-15T10:03:23;99995.03;;;19.80;64.04
59608;BME280;45426;44.726;10.390;2023-03-15T10:05:55;99996.53;;;19.92;69.12
59608;BME280;45426;44.726;10.390;2023-03-15T10:08:23;100004.88;;;19.81;63.19
59608;BME280;45426;44.726;10.390;2023-03-15T10:22:37;100001.91;;;19.50;66.54
59608;BME280;45426;44.726;10.390;2023-03-15T10:25:15;99997.38;;;20.68;62.01
59608;BME280;45426;44.726;10.390;2023-03-15T10:27:47;99996.88;;;20.39;60.09
59608;BME280;45426;44.726;10.390;2023-03-15T10:30:23;99996.94;;;20.35;65.48
59608;BME280;45426;44.726;10.390;2023-03-15T10:33:01;100003.09;;;19.53;72.70
59608;BME280;45426;44.726;10.390;2023-03-15T10:35:28;99998.00;;;20.04;81.28
59608;BME280;45426;44.726;10.390;2023-03-15T10:37:54;99997.47;;;19.64;85.12
59608;BME280;45426;44.726;10.390;2023-03-15T10:40:45;99999.25;;;19.95;100.00
59608;BME280;45426;44.726;10.390;2023-03-15T10:48:24;99998.47;;;20.36;79.04
59608;BME280;45426;44.726;10.390;2023-03-15T10:50:50;99997.31;;;20.75;81.49
59608;BME280;45426;44.726;10.390;2023-03-15T10:53:18;100003.59;;;19.93;90.98
59608;BME280;45426;44.726;10.390;2023-03-15T10:56:00;100012.75;;;19.83;100.00
59608;BME280;45426;44.726;10.390;2023-03-15T10:58:29;100012.91;;;20.10;66.14
59608;BME280;45426;44.726;10.390;2023-03-15T11:01:05;100021.44;;;19.77;69.91
59608;BME280;45426;44.726;10.390;2023-03-15T11:03:32;100030.88;;;19.80;82.67
59608;BME280;45426;44.726;10.390;2023-03-15T11:05:59;100033.38;;;20.58;69.96
59608;BME280;45426;44.726;10.390;2023-03-15T11:08:37;100036.22;;;20.47;77.87
59608;BME280;45426;44.726;10.390;2023-03-15T11:11:03;100040.84;;;19.52;64.45
59608;BME280;45426;44.726;10.390;2023-03-15T11:13:33;100042.19;;;19.93;76.48
59608;BME280;45426;44.726;10.390;2023-03-15T11:18:41;100039.25;;;20.63;62.90
59608;BME280;45426;44.726;10.390;2023-03-15T11:21:12;100036.91;;;20.62;69.61
59608;BME280;45426;44.726;10.390;2023-03-15T11:23:43;100047.25;;;19.35;79.87
59608;BME280;45426;44.726;10.390;2023-03-15T11:26:32;100047.00;;;19.82;57.58
59608;BME280;45426;44.726;10.390;2023-03-15T11:31:44;100055.66;;;19.80;69.76
59608;BME280;45426;44.726;10.390;2023-03-15T11:34:41;100049.53;;;20.10;64.20
59608;BME280;45426;44.726;10.390;2023-03-15T11:37:20;100052.72;;;20.09;65.81
59608;BME280;45426;44.726;10.390;2023-03-15T11:40:10;100058.31;;;20.85;88.21
59608;BME280;45426;44.726;10.390;2023-03-15T11:42:47;100048.06;;;20.44;61.66
59608;BME280;45426;44.726;10.390;2023-03-15T11:45:37;100053.41;;;20.65;63.82
59608;BME280;45426;44.726;10.390;2023-03-15T11:48:28;100061.47;;;20.87;100.00
59608;BME280;45426;44.726;10.390;2023-03-15T11:50:56;100059.00;;;19.43;100.00
59608;BME280;45426;44.726;10.390;2023-03-15T11:53:30;100065.19;;;18.30;100.00
59608;BME280;45426;44.726;10.390;2023-03-15T11:56:27;100066.38;;;18.32;100.00
59608;BME280;45426;44.726;10.390;2023-03-15T11:59:05;100075.03;;;18.20;100.00
59608;BME280;45426;44.726;10.390;2023-03-15T12:01:33;100071.34;;;19.13;100.00
59608;BME280;45426;44.726;10.390;2023-03-15T12:07:24;100067.53;;;18.42;100.00
59608;BME280;45426;44.726;10.390;2023-03-15T12:09:54;100067.75;;;17.33;100.00
59608;BME280;45426;44.726;10.390;2023-03-15T12:17:49;100064.47;;;17.02;100.00
59608;BME280;45426;44.726;10.390;2023-03-15T12:22:51;100064.56;;;17.20;100.00
59608;BME280;45426;44.726;10.390;2023-03-15T12:25:34;100068.50;;;17.26;100.00
59608;BME280;45426;44.726;10.390;2023-03-15T12:28:06;100062.97;;;17.12;100.00
59608;BME280;45426;44.726;10.390;2023-03-15T12:30:40;100059.13;;;17.34;100.00
59608;BME280;45426;44.726;10.390;2023-03-15T12:33:18;100051.44;;;18.15;100.00
59608;BME280;45426;44.726;10.390;2023-03-15T12:35:45;100058.06;;;18.83;100.00
59608;BME280;45426;44.726;10.390;2023-03-15T12:38:15;100049.78;;;18.79;100.00
59608;BME280;45426;44.726;10.390;2023-03-15T12:40:54;100060.03;;;18.68;100.00
59608;BME280;45426;44.726;10.390;2023-03-15T12:46:06;100064.81;;;18.20;100.00
59608;BME280;45426;44.726;10.390;2023-03-15T12:48:31;100073.31;;;17.51;100.00
59608;BME280;45426;44.726;10.390;2023-03-15T12:51:00;100072.22;;;17.91;100.00
59608;BME280;45426;44.726;10.390;2023-03-15T12:55:58;100057.34;;;18.21;100.00
59608;BME280;45426;44.726;10.390;2023-03-15T12:58:36;100077.13;;;17.28;100.00
59608;BME280;45426;44.726;10.390;2023-03-15T13:01:05;100076.31;;;16.06;100.00
59608;BME280;45426;44.726;10.390;2023-03-15T13:03:34;100073.03;;;16.86;100.00
59608;BME280;45426;44.726;10.390;2023-03-15T13:06:28;100078.13;;;15.91;100.00
59608;BME280;45426;44.726;10.390;2023-03-15T13:09:25;100081.06;;;15.71;100.00
59608;BME280;45426;44.726;10.390;2023-03-15T13:12:12;100088.91;;;16.10;100.00
59608;BME280;45426;44.726;10.390;2023-03-15T13:17:08;100081.69;;;15.95;100.00
59608;BME280;45426;44.726;10.390;2023-03-15T13:19:44;100087.16;;;14.67;100.00
59608;BME280;45426;44.726;10.390;2023-03-15T13:22:26;100084.97;;;13.84;100.00
59608;BME280;45426;44.726;10.390;2023-03-15T13:25:08;100078.31;;;15.04;100.00
59608;BME280;45426;44.726;10.390;2023-03-15T13:27:55;100091.72;;;15.77;100.00
59608;BME280;45426;44.726;10.390;2023-03-15T13:30:36;100093.44;;;14.98;100.00
59608;BME280;45426;44.726;10.390;2023-03-15T13:33:19;100086.69;;;15.18;100.00
59608;BME280;45426;44.726;10.390;2023-03-15T13:38:28;100092.50;;;14.13;100.00
59608;BME280;45426;44.726;10.390;2023-03-15T13:40:54;100087.69;;;14.53;100.00
59608;BME280;45426;44.726;10.390;2023-03-15T13:43:24;100091.41;;;14.64;100.00
59608;BME280;45426;44.726;10.390;2023-03-15T13:45:50;100090.75;;;15.01;100.00
59608;BME280;45426;44.726;10.390;2023-03-15T13:48:16;100092.66;;;15.27;100.00
59608;BME280;45426;44.726;10.390;2023-03-15T13:50:47;100100.78;;;14.63;100.00